Time;durP1;ratioP1;P1;durP2;ratioP2;P2;SDS_P1;SDS_P2;PMS_P1;PMS_P2;Temp;Humidity;BMP_temperature;BMP_pressure;BME280_temperature;BME280_humidity;BME280_pressure;Samples;Min_cycle;Max_cycle;Signal;HPM_P1;HPM_P2
2024/01/07 00:01:38;;;;;;;13.82;7.32;;;-0.20;99.90;;;;;;5001439;28;20448;-81
2024/01/07 00:04:04;;;;;;;14.20;7.53;;;-0.20;99.90;;;;;;5012337;28;20045;-81
2024/01/07 00:06:29;;;;;;;18.50;8.52;;;-0.40;99.90;;;;;;5002391;28;20044;-81
2024/01/07 00:08:55;;;;;;;16.67;8.82;;;-0.20;99.90;;;;;;5009079;28;20095;-81
2024/01/07 00:11:21;;;;;;;17.73;8.80;;;-0.20;99.90;;;;;;5020841;28;20436;-82
2024/01/07 00:13:55;;;;;;;16.23;8.85;;;-0.20;99.90;;;;;;5020365;28;20062;-81
2024/01/07 00:16:21;;;;;;;16.70;8.65;;;-0.10;99.90;;;;;;4980151;28;20046;-80
2024/01/07 00:18:46;;;;;;;16.10;8.93;;;-0.20;99.90;;;;;;4996588;28;20061;-81
2024/01/07 00:21:12;;;;;;;16.67;9.00;;;-0.30;99.90;;;;;;5004842;28;20373;-81
2024/01/07 00:23:38;;;;;;;15.60;8.55;;;-0.40;99.90;;;;;;5019081;28;20038;-81
2024/01/07 00:26:04;;;;;;;14.02;8.93;;;-0.20;99.90;;;;;;5002098;28;20054;-82
2024/01/07 00:28:30;;;;;;;17.13;8.65;;;-0.30;99.90;;;;;;5001617;28;20539;-81
2024/01/07 00:30:55;;;;;;;14.52;8.63;;;-0.30;99.90;;;;;;5019382;28;20115;-83
2024/01/07 00:33:21;;;;;;;17.52;8.50;;;-0.20;99.90;;;;;;5009036;28;20053;-81
2024/01/07 00:35:46;;;;;;;17.92;8.63;;;1.10;99.90;;;;;;5022373;28;20063;-81
2024/01/07 00:38:12;;;;;;;14.45;7.28;;;-0.30;99.90;;;;;;5022782;28;20037;-81
2024/01/07 00:40:38;;;;;;;14.57;7.15;;;0.80;99.90;;;;;;5003165;28;20615;-81
2024/01/07 00:43:04;;;;;;;12.00;6.45;;;-0.50;99.90;;;;;;4985608;28;20072;-81
2024/01/07 00:45:29;;;;;;;12.05;6.63;;;-0.30;99.90;;;;;;5021639;28;20050;-81
2024/01/07 00:47:55;;;;;;;12.77;7.25;;;-0.30;99.90;;;;;;5022290;28;20392;-81
2024/01/07 00:50:20;;;;;;;10.75;6.70;;;-0.30;99.90;;;;;;5022585;28;20056;-83
2024/01/07 00:52:46;;;;;;;11.68;6.75;;;-0.30;99.90;;;;;;5004217;28;20568;-82
2024/01/07 00:55:12;;;;;;;12.85;6.63;;;-0.40;99.90;;;;;;5018912;28;20141;-81
2024/01/07 00:57:50;;;;;;;14.55;7.40;;;-0.30;99.90;;;;;;5028518;23;20041;-82
2024/01/07 01:00:17;;;;;;;13.15;7.40;;;-0.30;99.90;;;;;;5008725;28;20056;-82
2024/01/07 01:02:45;;;;;;;10.20;6.40;;;-0.30;99.90;;;;;;5033854;28;20491;-83
2024/01/07 01:05:10;;;;;;;13.77;6.75;;;0.80;99.90;;;;;;5033707;28;20512;-82
2024/01/07 01:07:36;;;;;;;13.50;6.50;;;1.20;99.90;;;;;;5053122;28;20053;-83
2024/01/07 01:10:04;;;;;;;14.30;6.50;;;-0.60;99.90;;;;;;5035290;28;20049;-83
2024/01/07 01:12:39;;;;;;;10.65;6.35;;;-0.40;99.90;;;;;;5035051;28;20041;-81
2024/01/07 01:15:05;;;;;;;9.60;5.95;;;-0.60;99.90;;;;;;5033538;28;20052;-81
2024/01/07 01:17:30;;;;;;;10.18;5.75;;;-0.30;99.90;;;;;;5111960;23;20460;-82
2024/01/07 01:20:02;;;;;;;10.68;5.95;;;-0.40;99.90;;;;;;5029128;28;20048;-84
2024/01/07 01:22:28;;;;;;;8.85;5.70;;;-0.20;99.90;;;;;;5051101;28;20118;-82
2024/01/07 01:24:55;;;;;;;11.63;6.38;;;-0.40;99.90;;;;;;5052971;28;20040;-83
2024/01/07 01:27:21;;;;;;;10.90;6.20;;;-0.50;99.90;;;;;;5061804;28;20088;-81
2024/01/07 01:29:47;;;;;;;11.27;6.47;;;-0.50;99.90;;;;;;5032455;28;20080;-82
2024/01/07 01:32:13;;;;;;;13.25;7.00;;;-0.40;99.90;;;;;;5049700;28;20041;-83
2024/01/07 01:34:40;;;;;;;11.48;7.00;;;-0.30;99.90;;;;;;5050727;28;20107;-81
2024/01/07 01:37:07;;;;;;;14.32;7.00;;;-0.50;99.90;;;;;;5069976;28;20040;-81
2024/01/07 01:39:33;;;;;;;15.85;7.05;;;-0.40;99.90;;;;;;5061909;28;20385;-85
2024/01/07 01:41:59;;;;;;;14.60;7.03;;;0.20;99.90;;;;;;5061732;28;20048;-82
2024/01/07 01:44:27;;;;;;;15.60;7.25;;;-0.40;99.90;;;;;;5031301;28;20049;-80
2024/01/07 01:46:52;;;;;;;13.75;7.10;;;-0.50;99.90;;;;;;5068946;28;20060;-81
2024/01/07 01:49:18;;;;;;;13.07;7.32;;;-0.50;99.90;;;;;;5061605;28;20048;-85
2024/01/07 01:51:44;;;;;;;11.40;6.70;;;-0.40;99.90;;;;;;5061748;28;20072;-83
2024/01/07 01:54:10;;;;;;;12.38;6.38;;;-0.30;99.90;;;;;;5066506;28;20144;-83
2024/01/07 01:56:36;;;;;;;12.52;6.75;;;-0.40;99.90;;;;;;5058654;28;20416;-81
2024/01/07 01:59:02;;;;;;;10.18;6.07;;;1.30;99.90;;;;;;5048689;28;20045;-84
2024/01/07 02:01:28;;;;;;;10.07;4.60;;;-0.30;99.90;;;;;;5051480;28;20437;-82
2024/01/07 02:03:54;;;;;;;10.13;5.68;;;-0.40;99.90;;;;;;5034695;28;20067;-83
2024/01/07 02:06:21;;;;;;;11.82;5.97;;;-0.60;99.90;;;;;;5051820;28;20075;-82
2024/01/07 02:08:48;;;;;;;11.35;5.25;;;1.00;99.90;;;;;;5061283;28;20150;-81
2024/01/07 02:11:20;;;;;;;12.35;5.38;;;-0.50;99.90;;;;;;5059477;28;20557;-81
2024/01/07 02:13:46;;;;;;;8.77;4.82;;;-0.40;99.90;;;;;;5037517;28;20067;-81
2024/01/07 02:16:12;;;;;;;9.48;5.15;;;-0.50;99.90;;;;;;5050653;28;20056;-81
2024/01/07 02:18:41;;;;;;;8.20;5.00;;;-0.40;99.90;;;;;;5051867;28;20143;-79
2024/01/07 02:21:11;;;;;;;9.50;5.32;;;-0.50;99.90;;;;;;5052341;28;20037;-80
2024/01/07 02:23:37;;;;;;;9.73;5.10;;;0.60;99.90;;;;;;5047993;28;20131;-82
2024/01/07 02:26:03;;;;;;;13.15;5.20;;;0.10;99.90;;;;;;5055737;28;20044;-83
2024/01/07 02:28:29;;;;;;;8.13;4.22;;;-0.50;99.90;;;;;;5056135;28;20059;-82
2024/01/07 02:31:12;;;;;;;11.68;5.32;;;0.80;99.90;;;;;;5052980;28;20048;-80
2024/01/07 02:33:38;;;;;;;10.25;4.80;;;-0.40;99.90;;;;;;5054253;28;20399;-81
2024/01/07 02:36:04;;;;;;;12.13;5.00;;;1.10;99.90;;;;;;5055135;28;20045;-80
2024/01/07 02:38:30;;;;;;;10.50;5.05;;;-0.50;99.90;;;;;;5064849;28;20051;-80
2024/01/07 02:40:55;;;;;;;12.95;4.68;;;-0.60;99.90;;;;;;5052510;28;20060;-83
2024/01/07 02:43:21;;;;;;;10.68;5.20;;;-0.50;99.90;;;;;;5054865;28;20114;-82
2024/01/07 02:45:46;;;;;;;8.85;4.95;;;-0.50;99.90;;;;;;5064719;28;20033;-82
2024/01/07 02:48:12;;;;;;;10.93;5.40;;;-0.60;99.90;;;;;;5064510;28;20126;-82
2024/01/07 02:50:38;;;;;;;10.45;5.07;;;-0.50;99.90;;;;;;5051538;28;20158;-81
2024/01/07 02:53:04;;;;;;;10.98;4.97;;;-0.50;99.90;;;;;;5054508;28;20527;-81
2024/01/07 02:55:29;;;;;;;10.50;5.25;;;-0.50;99.90;;;;;;5066906;28;20171;-81
2024/01/07 02:57:55;;;;;;;10.00;5.25;;;-0.50;99.90;;;;;;5052049;28;20064;-81
2024/01/07 03:00:21;;;;;;;8.23;4.47;;;-0.60;99.90;;;;;;5056638;28;20089;-82
2024/01/07 03:02:46;;;;;;;7.80;4.50;;;0.70;99.90;;;;;;5074945;28;20097;-84
2024/01/07 03:05:12;;;;;;;9.82;4.90;;;-0.60;99.90;;;;;;5055409;28;20037;-81
2024/01/07 03:07:39;;;;;;;7.72;4.22;;;-0.50;99.90;;;;;;5056877;28;20096;-94
2024/01/07 03:10:06;;;;;;;8.77;4.80;;;-0.50;99.90;;;;;;5058092;28;20063;-81
2024/01/07 03:12:32;;;;;;;8.00;4.13;;;-0.50;99.90;;;;;;5053299;28;20037;-82
2024/01/07 03:14:57;;;;;;;9.68;4.38;;;-0.50;99.90;;;;;;5055507;28;20045;-83
2024/01/07 03:17:23;;;;;;;7.22;4.07;;;-0.50;99.90;;;;;;5046827;28;20048;-83
2024/01/07 03:19:49;;;;;;;7.05;3.83;;;-0.50;99.90;;;;;;5046768;28;20560;-82
2024/01/07 03:22:15;;;;;;;7.25;3.70;;;-0.60;99.90;;;;;;5074105;28;20127;-81
2024/01/07 03:24:42;;;;;;;8.80;3.95;;;-0.70;99.90;;;;;;5074579;28;20119;-83
2024/01/07 03:27:07;;;;;;;6.65;3.83;;;-0.50;99.90;;;;;;5056477;28;20088;-81
2024/01/07 03:29:33;;;;;;;7.93;4.13;;;-0.50;99.90;;;;;;5075186;28;20465;-82
2024/01/07 03:31:59;;;;;;;6.13;3.88;;;-0.70;99.90;;;;;;5056238;28;20115;-84
2024/01/07 03:34:24;;;;;;;7.22;3.35;;;-0.60;99.90;;;;;;5056440;28;20052;-80
2024/01/07 03:36:50;;;;;;;8.32;3.78;;;-0.50;99.90;;;;;;5074144;28;20037;-81
2024/01/07 03:39:15;;;;;;;7.55;3.50;;;-0.50;99.90;;;;;;5074435;28;20076;-82
2024/01/07 03:41:41;;;;;;;6.53;3.20;;;-0.50;99.90;;;;;;5054865;28;20068;-84
2024/01/07 03:44:07;;;;;;;7.10;3.28;;;-0.50;99.90;;;;;;5071672;28;20430;-85
2024/01/07 03:46:33;;;;;;;6.35;3.17;;;-0.60;99.90;;;;;;5051761;28;20124;-81
2024/01/07 03:48:59;;;;;;;7.10;3.42;;;-0.50;99.90;;;;;;5051243;28;20151;-80
2024/01/07 03:51:24;;;;;;;7.28;3.15;;;0.40;99.90;;;;;;5051962;28;20066;-81
2024/01/07 03:53:50;;;;;;;8.93;3.83;;;-0.60;99.90;;;;;;5063914;28;20044;-81
2024/01/07 03:56:15;;;;;;;6.22;3.28;;;-0.60;99.90;;;;;;5051585;28;20041;-82
2024/01/07 03:58:41;;;;;;;8.30;3.33;;;-0.50;99.90;;;;;;5051736;28;20415;-81
2024/01/07 04:01:06;;;;;;;6.78;3.15;;;-0.50;99.90;;;;;;5053190;28;20052;-81
2024/01/07 04:03:32;;;;;;;6.90;3.42;;;-0.50;99.90;;;;;;5053819;28;20067;-82
2024/01/07 04:05:58;;;;;;;6.78;3.22;;;-0.60;99.90;;;;;;5055570;28;20044;-84
2024/01/07 04:08:23;;;;;;;6.10;3.20;;;0.70;99.90;;;;;;5071206;28;20502;-83
2024/01/07 04:10:49;;;;;;;7.70;3.30;;;-0.60;99.90;;;;;;5073115;28;20041;-83
2024/01/07 04:13:15;;;;;;;6.50;2.80;;;-0.60;99.90;;;;;;5072611;28;20442;-81
2024/01/07 04:15:40;;;;;;;5.18;2.53;;;-0.60;99.90;;;;;;5072640;28;20041;-86
2024/01/07 04:18:06;;;;;;;7.35;2.90;;;-0.60;99.90;;;;;;5052798;28;20507;-82
2024/01/07 04:20:32;;;;;;;7.53;2.92;;;0.80;99.90;;;;;;5072385;28;20494;-82
2024/01/07 04:22:58;;;;;;;7.68;2.60;;;-0.60;99.90;;;;;;5070978;28;20036;-82
2024/01/07 04:25:26;;;;;;;5.05;2.53;;;-0.70;99.90;;;;;;5073114;28;20036;-81
2024/01/07 04:27:52;;;;;;;5.63;2.70;;;-0.80;99.90;;;;;;5073309;28;20044;-79
2024/01/07 04:30:18;;;;;;;6.55;2.50;;;-0.70;99.90;;;;;;5036693;28;20067;-82
2024/01/07 04:32:43;;;;;;;7.15;2.63;;;-0.60;99.90;;;;;;5073350;28;20033;-81
2024/01/07 04:35:09;;;;;;;4.38;2.25;;;-0.80;99.90;;;;;;5073040;28;20051;-86
2024/01/07 04:37:35;;;;;;;4.00;2.22;;;-0.80;99.90;;;;;;5054755;28;20388;-82
2024/01/07 04:40:02;;;;;;;4.55;2.17;;;-0.70;99.90;;;;;;5049958;28;20040;-81
2024/01/07 04:42:27;;;;;;;4.18;2.47;;;-0.70;99.90;;;;;;5055274;28;20044;-82
2024/01/07 04:44:53;;;;;;;6.20;2.30;;;-0.60;99.90;;;;;;5054747;28;20040;-83
2024/01/07 04:47:30;;;;;;;9.48;2.42;;;-0.70;99.90;;;;;;5071644;28;20697;-81
2024/01/07 04:49:56;;;;;;;4.15;2.15;;;-0.60;99.90;;;;;;5072400;28;20044;-84
2024/01/07 04:52:22;;;;;;;4.45;2.25;;;-0.70;99.90;;;;;;5054298;28;20063;-83
2024/01/07 04:54:52;;;;;;;4.65;1.95;;;-0.70;99.90;;;;;;5070952;28;20036;-83
2024/01/07 04:57:18;;;;;;;4.90;2.30;;;-0.80;99.90;;;;;;5073677;28;20071;-82
2024/01/07 04:59:44;;;;;;;5.63;1.92;;;-0.60;99.90;;;;;;5073859;28;20055;-84
2024/01/07 05:02:10;;;;;;;5.35;2.08;;;-0.60;99.90;;;;;;5076378;28;20052;-83
2024/01/07 05:04:36;;;;;;;3.55;1.90;;;-0.80;99.90;;;;;;5054451;28;20561;-81
2024/01/07 05:07:02;;;;;;;5.45;2.00;;;-0.60;99.90;;;;;;5075781;28;20539;-85
2024/01/07 05:09:28;;;;;;;4.85;2.08;;;-0.60;99.90;;;;;;5056825;28;20510;-84
2024/01/07 05:11:54;;;;;;;6.63;1.70;;;-0.50;99.90;;;;;;5056772;28;20028;-91
2024/01/07 05:14:20;;;;;;;4.53;2.10;;;-0.60;99.90;;;;;;5073101;28;20387;-82
2024/01/07 05:16:45;;;;;;;4.93;1.92;;;-0.70;99.90;;;;;;5056537;28;20056;-81
2024/01/07 05:19:11;;;;;;;6.30;1.75;;;-0.60;99.90;;;;;;5054016;28;20118;-84
2024/01/07 05:21:37;;;;;;;5.88;1.60;;;-0.50;99.90;;;;;;5072269;28;20029;-82
2024/01/07 05:24:04;;;;;;;6.75;1.70;;;-0.60;99.90;;;;;;5073820;28;20098;-82
2024/01/07 05:26:30;;;;;;;5.45;1.65;;;-0.50;99.90;;;;;;5055051;28;20044;-82
2024/01/07 05:28:55;;;;;;;4.13;1.80;;;-0.70;99.90;;;;;;5056639;28;20134;-81
2024/01/07 05:31:21;;;;;;;4.00;1.92;;;-0.50;99.90;;;;;;5055626;28;20073;-82
2024/01/07 05:33:46;;;;;;;3.90;1.40;;;-0.60;99.90;;;;;;5074520;28;20048;-82
2024/01/07 05:36:13;;;;;;;2.78;1.40;;;-0.50;99.90;;;;;;5073543;28;20491;-81
2024/01/07 05:38:38;;;;;;;7.15;1.52;;;-0.60;99.90;;;;;;5072857;28;20037;-83
2024/01/07 05:41:04;;;;;;;7.70;1.40;;;-0.50;99.90;;;;;;5054083;28;20565;-83
2024/01/07 05:43:30;;;;;;;3.50;1.67;;;-0.60;99.90;;;;;;5071932;28;20040;-84
2024/01/07 05:45:56;;;;;;;5.43;2.20;;;-0.60;99.90;;;;;;5071602;28;20041;-82
2024/01/07 05:48:22;;;;;;;4.30;1.50;;;-0.50;99.90;;;;;;5053533;28;20044;-81
2024/01/07 05:50:48;;;;;;;4.95;1.80;;;-0.60;99.90;;;;;;5072147;28;20554;-89
2024/01/07 05:53:14;;;;;;;4.50;2.03;;;-0.60;99.90;;;;;;5072991;28;20403;-83
2024/01/07 05:55:40;;;;;;;4.93;1.40;;;-0.60;99.90;;;;;;5055413;28;20060;-83
2024/01/07 05:58:06;;;;;;;5.20;1.65;;;-0.40;99.90;;;;;;5072265;28;20040;-86
2024/01/07 06:00:33;;;;;;;5.50;1.23;;;-0.50;99.90;;;;;;5059048;28;20049;-83
2024/01/07 06:02:59;;;;;;;4.57;2.10;;;-0.70;99.90;;;;;;5059699;28;20418;-83
2024/01/07 06:05:24;;;;;;;3.50;1.50;;;-0.40;99.90;;;;;;5077912;28;20076;-82
2024/01/07 06:07:50;;;;;;;4.18;1.58;;;-0.60;99.90;;;;;;5059269;28;20063;-82
2024/01/07 06:10:16;;;;;;;4.93;1.48;;;-0.50;99.90;;;;;;5077630;28;20449;-91
2024/01/07 06:12:42;;;;;;;5.47;1.52;;;-0.50;99.90;;;;;;5077580;28;20047;-83
2024/01/07 06:15:08;;;;;;;5.75;1.40;;;-0.50;99.90;;;;;;5076996;28;20882;-83
2024/01/07 06:17:33;;;;;;;4.18;1.42;;;-0.40;99.90;;;;;;5075372;28;20098;-82
2024/01/07 06:19:59;;;;;;;4.13;1.42;;;-0.50;99.90;;;;;;5041324;28;20044;-82
2024/01/07 06:22:25;;;;;;;5.78;1.45;;;0.80;99.90;;;;;;5057780;28;20079;-82
2024/01/07 06:24:50;;;;;;;3.13;1.27;;;-0.50;99.90;;;;;;5056614;28;20394;-81
2024/01/07 06:27:16;;;;;;;5.88;1.67;;;-0.40;99.90;;;;;;5057448;28;20052;-83
2024/01/07 06:29:42;;;;;;;3.00;1.05;;;-0.50;99.90;;;;;;5076280;28;20487;-82
2024/01/07 06:32:09;;;;;;;2.58;1.27;;;-0.40;99.90;;;;;;5057777;28;20043;-81
2024/01/07 06:34:35;;;;;;;4.68;1.33;;;-0.60;99.90;;;;;;5056181;28;20056;-81
2024/01/07 06:37:01;;;;;;;2.38;1.23;;;-0.40;99.90;;;;;;5075132;28;20043;-90
2024/01/07 06:39:27;;;;;;;3.70;1.20;;;-0.50;99.90;;;;;;5077052;28;20037;-85
2024/01/07 06:41:53;;;;;;;1.92;1.23;;;-0.50;99.90;;;;;;5059016;28;20047;-89
2024/01/07 06:44:18;;;;;;;3.35;1.25;;;-0.60;99.90;;;;;;5040908;28;20056;-82
2024/01/07 06:46:44;;;;;;;4.80;1.50;;;-0.40;99.90;;;;;;5056714;28;20051;-83
2024/01/07 06:49:09;;;;;;;3.53;1.23;;;-0.60;99.90;;;;;;5042972;28;20060;-82
2024/01/07 06:51:35;;;;;;;3.53;1.42;;;-0.50;99.90;;;;;;5077640;28;20044;-82
2024/01/07 06:54:01;;;;;;;2.90;1.25;;;-0.40;99.90;;;;;;5060678;28;20124;-88
2024/01/07 06:56:26;;;;;;;3.47;1.40;;;-0.40;99.90;;;;;;5059401;28;20040;-83
2024/01/07 06:58:52;;;;;;;6.68;1.40;;;-0.50;99.90;;;;;;5077138;28;20049;-86
2024/01/07 07:01:21;;;;;;;4.72;1.20;;;1.10;99.90;;;;;;5057806;28;20063;-82
2024/01/07 07:03:46;;;;;;;4.50;1.38;;;-0.50;99.90;;;;;;5056640;28;20052;-87
2024/01/07 07:06:12;;;;;;;4.38;1.50;;;-0.60;99.90;;;;;;5057896;28;20045;-87
2024/01/07 07:08:38;;;;;;;4.80;1.23;;;-0.20;99.90;;;;;;5057212;28;20049;-85
2024/01/07 07:11:04;;;;;;;3.70;1.10;;;-0.60;99.90;;;;;;5056141;28;20040;-86
2024/01/07 07:13:29;;;;;;;3.08;1.50;;;-0.60;99.90;;;;;;5039262;28;20036;-81
2024/01/07 07:15:55;;;;;;;2.72;1.17;;;-0.60;99.90;;;;;;5056022;28;20048;-82
2024/01/07 07:18:21;;;;;;;2.78;1.17;;;-0.50;99.90;;;;;;5074905;28;20049;-82
2024/01/07 07:20:47;;;;;;;4.57;1.30;;;-0.50;99.90;;;;;;5076860;28;20511;-82
2024/01/07 07:23:13;;;;;;;2.97;1.10;;;1.10;99.90;;;;;;5076067;28;20041;-83
2024/01/07 07:25:39;;;;;;;4.53;1.50;;;1.00;99.90;;;;;;5058441;28;20475;-83
2024/01/07 07:28:05;;;;;;;4.88;1.25;;;-0.50;99.90;;;;;;5072310;28;20082;-83
2024/01/07 07:30:30;;;;;;;3.78;1.33;;;-0.50;99.90;;;;;;5076071;28;20083;-85
2024/01/07 07:32:56;;;;;;;2.60;1.30;;;-0.50;99.90;;;;;;5075404;28;20060;-82
2024/01/07 07:35:22;;;;;;;2.97;1.10;;;-0.60;99.90;;;;;;5055782;28;20117;-82
2024/01/07 07:37:47;;;;;;;2.47;1.27;;;-0.70;99.90;;;;;;5039407;28;20462;-84
2024/01/07 07:40:13;;;;;;;2.47;1.08;;;-0.70;99.90;;;;;;5074649;28;20124;-83
2024/01/07 07:42:39;;;;;;;2.65;1.10;;;-0.60;99.90;;;;;;5073411;28;20111;-82
2024/01/07 07:45:05;;;;;;;3.85;1.00;;;0.00;99.90;;;;;;5073286;28;20036;-85
2024/01/07 07:47:31;;;;;;;2.35;1.15;;;-0.60;99.90;;;;;;5054779;28;20044;-82
2024/01/07 07:49:57;;;;;;;4.65;1.33;;;-0.70;99.90;;;;;;5055646;28;20052;-82
2024/01/07 07:52:25;;;;;;;2.67;1.25;;;-0.80;99.90;;;;;;5056737;28;20044;-82
2024/01/07 07:54:52;;;;;;;3.28;1.30;;;-0.80;99.90;;;;;;5073234;28;20084;-80
2024/01/07 07:57:20;;;;;;;2.17;1.10;;;-0.90;99.90;;;;;;5073957;28;20536;-82
2024/01/07 07:59:46;;;;;;;3.03;1.13;;;0.80;99.90;;;;;;5075590;28;20072;-87
2024/01/07 08:02:12;;;;;;;2.58;1.30;;;0.80;99.90;;;;;;5076101;28;20041;-83
2024/01/07 08:04:41;;;;;;;2.10;1.20;;;0.50;99.90;;;;;;5057449;28;20036;-82
2024/01/07 08:07:07;;;;;;;3.75;0.98;;;-0.90;99.90;;;;;;5054251;28;20044;-83
2024/01/07 08:09:33;;;;;;;3.88;1.08;;;0.70;99.90;;;;;;5074541;28;20123;-82
2024/01/07 08:11:58;;;;;;;2.47;1.05;;;-1.10;99.90;;;;;;5055599;28;20179;-82
2024/01/07 08:14:24;;;;;;;4.55;1.17;;;-1.00;99.90;;;;;;5056697;28;20075;-89
2024/01/07 08:16:49;;;;;;;2.35;1.20;;;-1.00;99.90;;;;;;5074614;28;20052;-82
2024/01/07 08:19:15;;;;;;;6.07;1.33;;;-1.00;99.90;;;;;;5075636;28;20070;-88
2024/01/07 08:21:41;;;;;;;3.08;1.30;;;-1.10;99.90;;;;;;5074278;28;20621;-85
2024/01/07 08:24:07;;;;;;;2.80;1.23;;;-1.20;99.90;;;;;;5057251;28;20399;-89
2024/01/07 08:26:33;;;;;;;3.35;1.50;;;-1.00;99.90;;;;;;5056996;28;20123;-82
2024/01/07 08:29:00;;;;;;;3.03;1.40;;;-0.50;99.90;;;;;;5075190;28;20124;-80
2024/01/07 08:31:25;;;;;;;4.53;1.52;;;-1.10;99.90;;;;;;5075115;28;20106;-81
2024/01/07 08:33:51;;;;;;;4.35;1.60;;;-1.10;99.90;;;;;;5056062;28;20048;-83
2024/01/07 08:36:16;;;;;;;2.65;1.35;;;-1.10;99.90;;;;;;5056300;28;20049;-93
2024/01/07 08:38:42;;;;;;;2.53;1.55;;;-1.10;99.90;;;;;;5055757;28;20071;-86
2024/01/07 08:41:08;;;;;;;3.97;1.50;;;0.40;99.90;;;;;;5051788;28;20464;-81
2024/01/07 08:43:33;;;;;;;4.32;1.48;;;-1.10;99.90;;;;;;5071651;28;20051;-84
2024/01/07 08:45:59;;;;;;;3.20;1.30;;;-0.90;99.90;;;;;;5072586;28;20044;-81
2024/01/07 08:48:25;;;;;;;3.22;1.33;;;-0.80;99.90;;;;;;5035815;28;20041;-83
2024/01/07 08:50:50;;;;;;;6.97;1.70;;;0.50;99.90;;;;;;5073290;28;20127;-83
2024/01/07 08:53:18;;;;;;;4.40;1.48;;;-0.80;99.90;;;;;;5033743;28;20051;-81
2024/01/07 08:55:44;;;;;;;5.28;1.38;;;0.40;99.90;;;;;;5073052;28;20411;-85
2024/01/07 08:58:09;;;;;;;6.57;1.75;;;-1.00;99.90;;;;;;5054367;28;20059;-80
2024/01/07 09:00:35;;;;;;;2.83;1.52;;;-1.40;99.90;;;;;;5055235;28;20051;-81
2024/01/07 09:03:00;;;;;;;4.10;1.60;;;0.60;99.90;;;;;;5066603;28;20047;-81
2024/01/07 09:05:26;;;;;;;4.28;1.35;;;-0.70;99.90;;;;;;5052757;28;20127;-83
2024/01/07 09:07:52;;;;;;;4.65;1.45;;;0.70;99.90;;;;;;5038577;28;20051;-81
2024/01/07 09:10:18;;;;;;;7.53;1.55;;;-0.60;99.90;;;;;;5073784;28;20068;-83
2024/01/07 09:12:46;;;;;;;2.85;1.45;;;-0.60;99.90;;;;;;5065053;28;20045;-86
2024/01/07 09:15:12;;;;;;;4.30;1.40;;;1.10;99.90;;;;;;5054729;28;20117;-89
2024/01/07 09:17:38;;;;;;;4.13;1.45;;;-0.40;99.90;;;;;;5054514;28;20119;-91
2024/01/07 09:20:07;;;;;;;4.82;1.20;;;-0.70;99.90;;;;;;5065144;28;20041;-88
2024/01/07 09:22:36;;;;;;;3.80;1.25;;;-0.50;99.90;;;;;;5050972;28;20451;-86
2024/01/07 09:25:05;;;;;;;2.88;1.35;;;-0.60;99.90;;;;;;5068838;28;20535;-88
2024/01/07 09:27:32;;;;;;;11.80;2.53;;;-0.50;99.90;;;;;;5043633;28;20045;-84
2024/01/07 09:29:58;;;;;;;3.28;1.67;;;-0.50;99.90;;;;;;5051582;28;20052;-89
2024/01/07 09:32:24;;;;;;;4.45;1.20;;;-0.60;99.90;;;;;;5069199;28;20041;-90
2024/01/07 09:34:50;;;;;;;3.90;1.45;;;-0.50;99.90;;;;;;5028991;28;20510;-87
2024/01/07 09:37:16;;;;;;;4.40;1.35;;;0.90;99.90;;;;;;5068385;28;20056;-85
2024/01/07 09:39:44;;;;;;;3.28;1.38;;;-0.50;99.90;;;;;;5042933;28;20399;-84
2024/01/07 09:42:17;;;;;;;6.03;1.42;;;0.60;99.90;;;;;;5066474;28;20049;-87
2024/01/07 09:44:43;;;;;;;2.45;1.20;;;-0.30;99.90;;;;;;5059339;28;20045;-86
2024/01/07 09:47:15;;;;;;;2.47;1.20;;;1.00;99.90;;;;;;5050338;28;20076;-89
2024/01/07 09:49:42;;;;;;;4.38;1.35;;;0.90;99.90;;;;;;5071175;28;20138;-89
2024/01/07 09:52:09;;;;;;;4.13;1.20;;;1.40;99.90;;;;;;5052648;28;20089;-86
2024/01/07 09:54:39;;;;;;;4.38;1.58;;;-0.20;99.90;;;;;;5050242;28;20060;-94
2024/01/07 09:57:08;;;;;;;4.72;1.40;;;-0.20;99.90;;;;;;5050742;28;20053;-84
2024/01/07 09:59:36;;;;;;;3.25;1.25;;;-0.20;99.90;;;;;;5052353;28;20041;-83
2024/01/07 10:02:02;;;;;;;2.15;1.02;;;-0.10;99.90;;;;;;5070192;28;20051;-85
2024/01/07 10:04:29;;;;;;;5.75;1.50;;;-0.20;99.90;;;;;;5035838;28;20056;-94
2024/01/07 10:06:55;;;;;;;6.32;1.58;;;1.30;99.90;;;;;;5070710;28;20043;-84
2024/01/07 10:09:33;;;;;;;3.20;1.35;;;0.00;99.90;;;;;;5070172;28;20044;-85
2024/01/07 10:11:59;;;;;;;3.92;1.40;;;-0.10;99.90;;;;;;5052337;28;20041;-95
2024/01/07 10:14:25;;;;;;;4.53;1.30;;;-0.30;99.90;;;;;;5068741;28;20045;-84
2024/01/07 10:16:54;;;;;;;6.53;1.77;;;0.00;99.90;;;;;;5069958;28;20131;-86
2024/01/07 10:19:22;;;;;;;3.25;1.48;;;0.10;99.90;;;;;;5046728;28;20087;-89
2024/01/07 10:22:03;;;;;;;2.95;1.40;;;0.00;99.90;;;;;;5052450;28;20045;-91
2024/01/07 10:24:43;;;;;;;6.55;1.85;;;0.10;99.90;;;;;;5048402;28;20613;-89
2024/01/07 10:27:10;;;;;;;3.80;1.70;;;1.60;99.90;;;;;;5034610;28;20170;-88
2024/01/07 10:29:36;;;;;;;5.05;1.60;;;1.60;99.90;;;;;;5066371;28;20496;-89
2024/01/07 10:32:02;;;;;;;3.60;1.98;;;0.10;99.90;;;;;;5048794;28;20049;-94
2024/01/07 10:34:33;;;;;;;5.15;1.65;;;0.20;99.90;;;;;;5062210;28;20151;-90
2024/01/07 10:37:00;;;;;;;5.28;1.88;;;1.70;99.90;;;;;;5062093;28;20048;-86
2024/01/07 10:39:26;;;;;;;5.30;1.40;;;0.20;99.90;;;;;;5060929;28;20055;-86
2024/01/07 10:41:57;;;;;;;3.35;1.30;;;0.20;99.90;;;;;;5059435;28;20753;-89
2024/01/07 10:44:27;;;;;;;3.63;1.50;;;0.30;99.90;;;;;;5067055;28;20052;-87
2024/01/07 10:46:55;;;;;;;3.92;1.48;;;0.30;99.90;;;;;;5061534;28;20041;-85
2024/01/07 10:49:23;;;;;;;2.95;1.58;;;2.10;99.90;;;;;;5050992;28;20064;-83
2024/01/07 10:52:05;;;;;;;7.50;1.92;;;0.40;99.90;;;;;;5071143;28;20048;-84
2024/01/07 10:54:33;;;;;;;5.97;2.67;;;0.60;99.90;;;;;;5073049;28;20079;-84
2024/01/07 10:57:20;;;;;;;5.97;2.35;;;0.90;99.90;;;;;;5058142;28;20033;-87
2024/01/07 10:59:50;;;;;;;5.95;2.15;;;2.60;99.90;;;;;;5044866;28;20139;-88
2024/01/07 11:02:16;;;;;;;3.88;2.22;;;1.40;99.90;;;;;;5052292;28;20044;-81
2024/01/07 11:05:00;;;;;;;5.80;2.55;;;1.60;99.90;;;;;;5074231;28;20036;-81
2024/01/07 11:07:55;;;;;;;6.95;3.50;;;2.60;99.90;;;;;;5038187;28;20526;-80
2024/01/07 11:10:25;;;;;;;4.63;2.60;;;1.90;99.90;;;;;;5031846;28;20147;-83
2024/01/07 11:13:03;;;;;;;4.70;2.03;;;3.00;99.90;;;;;;5055415;28;20052;-82
2024/01/07 11:15:47;;;;;;;3.33;1.67;;;2.30;99.90;;;;;;5073618;28;20041;-90
2024/01/07 11:18:23;;;;;;;5.18;1.60;;;2.40;99.90;;;;;;5054993;28;20499;-89
2024/01/07 11:20:49;;;;;;;6.75;1.70;;;3.50;99.90;;;;;;5073889;28;20112;-83
2024/01/07 11:23:37;;;;;;;6.82;3.17;;;2.40;99.90;;;;;;5055111;28;20578;-86
2024/01/07 11:26:03;;;;;;;6.50;2.45;;;2.60;99.90;;;;;;5053947;28;20045;-90
2024/01/07 11:28:48;;;;;;;5.10;2.33;;;2.80;99.90;;;;;;5074502;28;20045;-94
2024/01/07 11:31:15;;;;;;;6.43;1.92;;;2.70;99.90;;;;;;5055892;28;20790;-83
2024/01/07 11:33:49;;;;;;;5.78;2.35;;;2.70;99.90;;;;;;5074702;28;20046;-84
2024/01/07 11:36:16;;;;;;;4.07;1.50;;;2.70;99.90;;;;;;5075058;28;20067;-82
2024/01/07 11:38:43;;;;;;;4.50;1.50;;;2.60;99.90;;;;;;5053388;28;20053;-82
2024/01/07 11:41:12;;;;;;;3.65;1.58;;;2.80;99.90;;;;;;5052242;28;20045;-92
2024/01/07 11:43:37;;;;;;;6.65;1.67;;;2.90;99.90;;;;;;5054078;28;20044;-89
2024/01/07 11:46:04;;;;;;;5.03;1.80;;;2.90;99.90;;;;;;5059022;28;20093;-85
2024/01/07 11:48:31;;;;;;;4.35;1.90;;;3.80;99.90;;;;;;5073968;28;20068;-92
2024/01/07 11:50:57;;;;;;;7.35;2.40;;;3.20;99.90;;;;;;5074790;28;20062;-83
2024/01/07 11:53:23;;;;;;;4.78;2.20;;;3.90;99.90;;;;;;5052933;28;20483;-83
2024/01/07 11:55:48;;;;;;;10.68;2.60;;;3.10;99.90;;;;;;5057884;28;20041;-86
2024/01/07 11:58:14;;;;;;;7.03;2.53;;;3.10;99.90;;;;;;5035485;28;20053;-89
2024/01/07 12:00:39;;;;;;;4.00;2.03;;;4.00;99.90;;;;;;5053877;28;20095;-87
2024/01/07 12:03:05;;;;;;;5.70;2.58;;;3.00;99.90;;;;;;5039063;28;20079;-84
2024/01/07 12:05:31;;;;;;;4.38;2.42;;;4.40;99.90;;;;;;5054546;28;20099;-90
2024/01/07 12:07:57;;;;;;;4.03;2.17;;;3.00;99.90;;;;;;5055142;28;20102;-86
2024/01/07 12:10:25;;;;;;;5.47;2.22;;;2.90;99.90;;;;;;5074345;28;20036;-83
2024/01/07 12:12:52;;;;;;;5.78;2.60;;;3.20;99.90;;;;;;5056871;28;20052;-82
2024/01/07 12:15:18;;;;;;;5.90;2.30;;;3.10;99.90;;;;;;5053254;28;20049;-86
2024/01/07 12:17:58;;;;;;;5.32;2.78;;;4.00;99.90;;;;;;5054784;28;20448;-81
2024/01/07 12:20:24;;;;;;;6.40;2.70;;;3.30;99.90;;;;;;5055482;28;20127;-93
2024/01/07 12:22:50;;;;;;;5.78;2.50;;;4.70;99.90;;;;;;5073844;28;20398;-96
2024/01/07 12:25:23;;;;;;;7.35;2.70;;;3.50;99.90;;;;;;5072840;28;20056;-85
2024/01/07 12:27:52;;;;;;;5.32;2.55;;;3.70;99.90;;;;;;5054356;28;20052;-90
2024/01/07 12:30:19;;;;;;;6.95;2.63;;;4.80;99.90;;;;;;5072985;28;20488;-82
2024/01/07 12:32:45;;;;;;;4.78;2.42;;;5.10;99.90;;;;;;5051765;28;20052;-94
2024/01/07 12:35:10;;;;;;;5.22;2.80;;;3.60;99.90;;;;;;5073763;28;20119;-84
2024/01/07 12:37:37;;;;;;;5.65;2.85;;;3.60;99.90;;;;;;5038274;28;20105;-83
2024/01/07 12:40:04;;;;;;;5.72;2.95;;;3.60;99.90;;;;;;5071937;28;20048;-82
2024/01/07 12:42:30;;;;;;;4.80;2.13;;;3.60;99.90;;;;;;5072967;28;20040;-84
2024/01/07 12:44:55;;;;;;;7.30;2.85;;;3.50;99.90;;;;;;5051703;28;20056;-87
2024/01/07 12:47:21;;;;;;;10.57;2.90;;;3.60;99.90;;;;;;5072898;28;20032;-87